sensor_id;sensor_type;location;lat;lon;timestamp;P1;durP1;ratioP1;P2;durP2;ratioP2
7047;SDS011;3565;53.254;10.352;2023-02-28T00:00:09;16.03;;;9.63;;
7047;SDS011;3565;53.254;10.352;2023-02-28T00:02:40;14.50;;;9.77;;
7047;SDS011;3565;53.254;10.352;2023-02-28T00:05:12;11.57;;;8.50;;
7047;SDS011;3565;53.254;10.352;2023-02-28T00:07:42;15.37;;;9.23;;
7047;SDS011;3565;53.254;10.352;2023-02-28T00:10:14;11.70;;;8.23;;
7047;SDS011;3565;53.254;10.352;2023-02-28T00:12:45;11.70;;;7.60;;
7047;SDS011;3565;53.254;10.352;2023-02-28T00:15:15;13.53;;;8.70;;
7047;SDS011;3565;53.254;10.352;2023-02-28T00:17:45;12.90;;;9.53;;
7047;SDS011;3565;53.254;10.352;2023-02-28T00:20:15;15.27;;;9.47;;
7047;SDS011;3565;53.254;10.352;2023-02-28T00:22:46;12.03;;;8.80;;
7047;SDS011;3565;53.254;10.352;2023-02-28T00:25:18;15.93;;;9.70;;
7047;SDS011;3565;53.254;10.352;2023-02-28T00:27:48;11.63;;;8.90;;
7047;SDS011;3565;53.254;10.352;2023-02-28T00:30:18;12.87;;;8.93;;
7047;SDS011;3565;53.254;10.352;2023-02-28T00:32:48;12.20;;;8.77;;
7047;SDS011;3565;53.254;10.352;2023-02-28T00:37:58;16.47;;;10.67;;
7047;SDS011;3565;53.254;10.352;2023-02-28T00:40:28;13.73;;;10.13;;
7047;SDS011;3565;53.254;10.352;2023-02-28T00:42:57;16.70;;;10.00;;
7047;SDS011;3565;53.254;10.352;2023-02-28T00:45:26;14.27;;;9.13;;
7047;SDS011;3565;53.254;10.352;2023-02-28T00:47:55;14.73;;;9.67;;
7047;SDS011;3565;53.254;10.352;2023-02-28T00:50:25;16.97;;;10.00;;
7047;SDS011;3565;53.254;10.352;2023-02-28T00:52:54;13.83;;;9.13;;
7047;SDS011;3565;53.254;10.352;2023-02-28T00:55:23;14.80;;;9.67;;
7047;SDS011;3565;53.254;10.352;2023-02-28T00:57:52;16.30;;;9.47;;
7047;SDS011;3565;53.254;10.352;2023-02-28T01:00:22;13.67;;;9.20;;
7047;SDS011;3565;53.254;10.352;2023-02-28T01:02:52;15.57;;;9.20;;
7047;SDS011;3565;53.254;10.352;2023-02-28T01:05:21;10.17;;;8.07;;
7047;SDS011;3565;53.254;10.352;2023-02-28T01:07:53;11.00;;;8.13;;
7047;SDS011;3565;53.254;10.352;2023-02-28T01:10:22;10.87;;;7.97;;
7047;SDS011;3565;53.254;10.352;2023-02-28T01:12:52;10.53;;;8.07;;
7047;SDS011;3565;53.254;10.352;2023-02-28T01:15:21;14.60;;;8.60;;
7047;SDS011;3565;53.254;10.352;2023-02-28T01:17:50;10.37;;;8.40;;
7047;SDS011;3565;53.254;10.352;2023-02-28T01:20:20;10.80;;;7.63;;
7047;SDS011;3565;53.254;10.352;2023-02-28T01:22:49;12.07;;;7.60;;
7047;SDS011;3565;53.254;10.352;2023-02-28T01:25:18;11.87;;;7.60;;
7047;SDS011;3565;53.254;10.352;2023-02-28T01:27:47;10.03;;;7.67;;
7047;SDS011;3565;53.254;10.352;2023-02-28T01:30:17;9.17;;;6.90;;
7047;SDS011;3565;53.254;10.352;2023-02-28T01:32:46;8.87;;;6.70;;
7047;SDS011;3565;53.254;10.352;2023-02-28T01:35:18;10.17;;;7.23;;
7047;SDS011;3565;53.254;10.352;2023-02-28T01:37:47;8.97;;;6.53;;
7047;SDS011;3565;53.254;10.352;2023-02-28T01:40:16;11.33;;;7.43;;
7047;SDS011;3565;53.254;10.352;2023-02-28T01:42:58;10.27;;;7.13;;
7047;SDS011;3565;53.254;10.352;2023-02-28T01:45:28;10.87;;;6.90;;
7047;SDS011;3565;53.254;10.352;2023-02-28T01:47:59;11.73;;;6.27;;
7047;SDS011;3565;53.254;10.352;2023-02-28T01:50:32;9.83;;;6.13;;
7047;SDS011;3565;53.254;10.352;2023-02-28T01:53:12;6.83;;;5.90;;
7047;SDS011;3565;53.254;10.352;2023-02-28T01:55:45;9.40;;;6.27;;
7047;SDS011;3565;53.254;10.352;2023-02-28T01:58:16;7.83;;;6.03;;
7047;SDS011;3565;53.254;10.352;2023-02-28T02:00:45;9.57;;;6.10;;
7047;SDS011;3565;53.254;10.352;2023-02-28T02:03:15;10.07;;;5.87;;
7047;SDS011;3565;53.254;10.352;2023-02-28T02:05:47;8.97;;;6.13;;
7047;SDS011;3565;53.254;10.352;2023-02-28T02:08:18;7.97;;;6.23;;
7047;SDS011;3565;53.254;10.352;2023-02-28T02:10:50;10.20;;;5.83;;
7047;SDS011;3565;53.254;10.352;2023-02-28T02:13:34;7.57;;;6.00;;
7047;SDS011;3565;53.254;10.352;2023-02-28T02:16:20;8.10;;;6.00;;
7047;SDS011;3565;53.254;10.352;2023-02-28T02:18:54;9.33;;;5.90;;
7047;SDS011;3565;53.254;10.352;2023-02-28T02:30:55;7.63;;;5.70;;
7047;SDS011;3565;53.254;10.352;2023-02-28T02:36:48;6.13;;;5.00;;
7047;SDS011;3565;53.254;10.352;2023-02-28T02:39:22;10.13;;;6.00;;
7047;SDS011;3565;53.254;10.352;2023-02-28T02:42:03;8.50;;;5.73;;
7047;SDS011;3565;53.254;10.352;2023-02-28T02:44:37;8.90;;;6.20;;
7047;SDS011;3565;53.254;10.352;2023-02-28T02:47:17;6.73;;;5.80;;
7047;SDS011;3565;53.254;10.352;2023-02-28T02:49:50;12.67;;;6.30;;
7047;SDS011;3565;53.254;10.352;2023-02-28T02:52:23;9.07;;;6.10;;
7047;SDS011;3565;53.254;10.352;2023-02-28T02:55:02;7.93;;;6.13;;
7047;SDS011;3565;53.254;10.352;2023-02-28T02:57:35;9.80;;;6.23;;
7047;SDS011;3565;53.254;10.352;2023-02-28T03:00:08;8.60;;;6.40;;
7047;SDS011;3565;53.254;10.352;2023-02-28T03:02:42;9.30;;;5.40;;
7047;SDS011;3565;53.254;10.352;2023-02-28T03:05:14;7.97;;;5.70;;
7047;SDS011;3565;53.254;10.352;2023-02-28T03:07:53;7.33;;;5.50;;
7047;SDS011;3565;53.254;10.352;2023-02-28T03:10:29;6.60;;;5.63;;
7047;SDS011;3565;53.254;10.352;2023-02-28T03:13:07;8.30;;;5.37;;
7047;SDS011;3565;53.254;10.352;2023-02-28T03:16:09;7.80;;;6.13;;
7047;SDS011;3565;53.254;10.352;2023-02-28T03:18:54;8.33;;;5.20;;
7047;SDS011;3565;53.254;10.352;2023-02-28T03:21:30;6.90;;;5.30;;
7047;SDS011;3565;53.254;10.352;2023-02-28T03:24:03;7.37;;;5.17;;
7047;SDS011;3565;53.254;10.352;2023-02-28T03:26:36;9.97;;;5.83;;
7047;SDS011;3565;53.254;10.352;2023-02-28T03:29:09;8.40;;;5.40;;
7047;SDS011;3565;53.254;10.352;2023-02-28T03:31:49;9.23;;;5.67;;
7047;SDS011;3565;53.254;10.352;2023-02-28T03:34:22;8.23;;;5.60;;
7047;SDS011;3565;53.254;10.352;2023-02-28T03:36:56;8.23;;;5.40;;
7047;SDS011;3565;53.254;10.352;2023-02-28T03:39:27;8.20;;;5.27;;
7047;SDS011;3565;53.254;10.352;2023-02-28T03:42:00;8.77;;;5.17;;
7047;SDS011;3565;53.254;10.352;2023-02-28T03:44:33;6.00;;;5.40;;
7047;SDS011;3565;53.254;10.352;2023-02-28T03:47:07;6.10;;;4.97;;
7047;SDS011;3565;53.254;10.352;2023-02-28T03:49:38;7.87;;;5.30;;
7047;SDS011;3565;53.254;10.352;2023-02-28T03:52:20;6.77;;;5.30;;
7047;SDS011;3565;53.254;10.352;2023-02-28T03:54:53;8.50;;;5.97;;
7047;SDS011;3565;53.254;10.352;2023-02-28T03:57:27;7.03;;;5.40;;
7047;SDS011;3565;53.254;10.352;2023-02-28T04:00:02;7.23;;;5.27;;
7047;SDS011;3565;53.254;10.352;2023-02-28T04:02:33;10.30;;;5.73;;
7047;SDS011;3565;53.254;10.352;2023-02-28T04:05:02;6.43;;;5.20;;
7047;SDS011;3565;53.254;10.352;2023-02-28T04:07:32;10.27;;;5.60;;
7047;SDS011;3565;53.254;10.352;2023-02-28T04:10:02;7.60;;;5.77;;
7047;SDS011;3565;53.254;10.352;2023-02-28T04:12:32;10.27;;;5.60;;
7047;SDS011;3565;53.254;10.352;2023-02-28T04:15:05;8.93;;;5.87;;
7047;SDS011;3565;53.254;10.352;2023-02-28T04:17:36;6.63;;;5.50;;
7047;SDS011;3565;53.254;10.352;2023-02-28T04:20:07;9.63;;;6.03;;
7047;SDS011;3565;53.254;10.352;2023-02-28T04:22:38;9.23;;;6.17;;
7047;SDS011;3565;53.254;10.352;2023-02-28T04:25:07;10.27;;;6.37;;
7047;SDS011;3565;53.254;10.352;2023-02-28T04:27:37;8.50;;;6.20;;
7047;SDS011;3565;53.254;10.352;2023-02-28T04:30:07;10.67;;;6.27;;
7047;SDS011;3565;53.254;10.352;2023-02-28T04:32:38;8.77;;;5.97;;
7047;SDS011;3565;53.254;10.352;2023-02-28T04:35:08;8.87;;;6.00;;
7047;SDS011;3565;53.254;10.352;2023-02-28T04:37:37;7.97;;;5.90;;
7047;SDS011;3565;53.254;10.352;2023-02-28T04:40:07;7.73;;;5.57;;
7047;SDS011;3565;53.254;10.352;2023-02-28T04:42:38;12.63;;;5.87;;
7047;SDS011;3565;53.254;10.352;2023-02-28T04:45:08;10.53;;;6.07;;
7047;SDS011;3565;53.254;10.352;2023-02-28T04:47:38;10.27;;;6.67;;
7047;SDS011;3565;53.254;10.352;2023-02-28T04:50:17;9.73;;;6.47;;
7047;SDS011;3565;53.254;10.352;2023-02-28T04:55:24;9.67;;;6.03;;
7047;SDS011;3565;53.254;10.352;2023-02-28T04:57:54;10.13;;;6.03;;
7047;SDS011;3565;53.254;10.352;2023-02-28T05:00:24;8.77;;;5.97;;
7047;SDS011;3565;53.254;10.352;2023-02-28T05:02:53;14.83;;;7.70;;
7047;SDS011;3565;53.254;10.352;2023-02-28T05:05:22;11.80;;;7.67;;
7047;SDS011;3565;53.254;10.352;2023-02-28T05:07:52;14.77;;;8.00;;
7047;SDS011;3565;53.254;10.352;2023-02-28T05:10:22;13.53;;;7.50;;
7047;SDS011;3565;53.254;10.352;2023-02-28T05:12:52;10.20;;;6.43;;
7047;SDS011;3565;53.254;10.352;2023-02-28T05:15:22;11.13;;;7.00;;
7047;SDS011;3565;53.254;10.352;2023-02-28T05:17:51;9.00;;;6.00;;
7047;SDS011;3565;53.254;10.352;2023-02-28T05:20:30;10.23;;;6.60;;
7047;SDS011;3565;53.254;10.352;2023-02-28T05:22:59;9.30;;;5.97;;
7047;SDS011;3565;53.254;10.352;2023-02-28T05:25:29;12.67;;;6.60;;
7047;SDS011;3565;53.254;10.352;2023-02-28T05:27:58;12.10;;;7.17;;
7047;SDS011;3565;53.254;10.352;2023-02-28T05:30:27;11.73;;;6.80;;
7047;SDS011;3565;53.254;10.352;2023-02-28T05:32:58;10.97;;;7.17;;
7047;SDS011;3565;53.254;10.352;2023-02-28T05:35:27;12.07;;;7.60;;
7047;SDS011;3565;53.254;10.352;2023-02-28T05:37:56;12.83;;;7.37;;
7047;SDS011;3565;53.254;10.352;2023-02-28T05:40:28;12.73;;;7.37;;
7047;SDS011;3565;53.254;10.352;2023-02-28T05:42:57;13.83;;;7.80;;
7047;SDS011;3565;53.254;10.352;2023-02-28T05:45:26;12.30;;;7.70;;
7047;SDS011;3565;53.254;10.352;2023-02-28T05:47:55;15.87;;;9.33;;
7047;SDS011;3565;53.254;10.352;2023-02-28T05:50:24;37.73;;;15.43;;
7047;SDS011;3565;53.254;10.352;2023-02-28T05:52:54;50.60;;;20.70;;
7047;SDS011;3565;53.254;10.352;2023-02-28T05:55:23;70.43;;;29.17;;
7047;SDS011;3565;53.254;10.352;2023-02-28T05:57:52;44.63;;;19.47;;
7047;SDS011;3565;53.254;10.352;2023-02-28T06:00:22;28.37;;;14.50;;
7047;SDS011;3565;53.254;10.352;2023-02-28T06:02:52;15.83;;;10.37;;
7047;SDS011;3565;53.254;10.352;2023-02-28T06:05:23;16.40;;;9.60;;
7047;SDS011;3565;53.254;10.352;2023-02-28T06:07:53;13.50;;;9.00;;
7047;SDS011;3565;53.254;10.352;2023-02-28T06:10:22;14.70;;;9.13;;
7047;SDS011;3565;53.254;10.352;2023-02-28T06:12:53;14.37;;;8.50;;
7047;SDS011;3565;53.254;10.352;2023-02-28T06:15:22;12.13;;;7.90;;
7047;SDS011;3565;53.254;10.352;2023-02-28T06:17:51;10.37;;;7.50;;
7047;SDS011;3565;53.254;10.352;2023-02-28T06:20:22;13.00;;;7.70;;
7047;SDS011;3565;53.254;10.352;2023-02-28T06:22:54;10.57;;;7.37;;
7047;SDS011;3565;53.254;10.352;2023-02-28T06:25:26;10.53;;;7.70;;
7047;SDS011;3565;53.254;10.352;2023-02-28T06:28:05;13.40;;;8.53;;
7047;SDS011;3565;53.254;10.352;2023-02-28T06:30:35;11.20;;;7.77;;
7047;SDS011;3565;53.254;10.352;2023-02-28T06:33:05;11.33;;;8.30;;
7047;SDS011;3565;53.254;10.352;2023-02-28T06:35:34;11.70;;;7.87;;
7047;SDS011;3565;53.254;10.352;2023-02-28T06:38:04;10.93;;;8.03;;
7047;SDS011;3565;53.254;10.352;2023-02-28T06:40:33;13.67;;;8.50;;
7047;SDS011;3565;53.254;10.352;2023-02-28T06:43:03;11.50;;;7.47;;
7047;SDS011;3565;53.254;10.352;2023-02-28T06:45:33;15.27;;;8.90;;
7047;SDS011;3565;53.254;10.352;2023-02-28T06:48:02;12.83;;;7.87;;
7047;SDS011;3565;53.254;10.352;2023-02-28T06:50:31;13.87;;;8.63;;
7047;SDS011;3565;53.254;10.352;2023-02-28T06:53:00;17.70;;;9.03;;
7047;SDS011;3565;53.254;10.352;2023-02-28T06:55:29;11.87;;;8.17;;
7047;SDS011;3565;53.254;10.352;2023-02-28T06:57:59;14.23;;;8.27;;
7047;SDS011;3565;53.254;10.352;2023-02-28T07:00:28;16.20;;;9.00;;
7047;SDS011;3565;53.254;10.352;2023-02-28T07:02:57;12.63;;;8.20;;
7047;SDS011;3565;53.254;10.352;2023-02-28T07:05:26;16.87;;;11.97;;
7047;SDS011;3565;53.254;10.352;2023-02-28T07:07:56;13.57;;;9.27;;
7047;SDS011;3565;53.254;10.352;2023-02-28T07:10:25;15.87;;;12.00;;
7047;SDS011;3565;53.254;10.352;2023-02-28T07:12:54;13.77;;;8.63;;
7047;SDS011;3565;53.254;10.352;2023-02-28T07:15:24;11.27;;;8.50;;
7047;SDS011;3565;53.254;10.352;2023-02-28T07:17:53;9.30;;;7.07;;
7047;SDS011;3565;53.254;10.352;2023-02-28T07:20:23;10.70;;;7.03;;
7047;SDS011;3565;53.254;10.352;2023-02-28T07:22:52;9.00;;;6.60;;
7047;SDS011;3565;53.254;10.352;2023-02-28T07:25:22;10.87;;;7.80;;
7047;SDS011;3565;53.254;10.352;2023-02-28T07:27:52;10.67;;;7.40;;
7047;SDS011;3565;53.254;10.352;2023-02-28T07:30:22;9.57;;;6.97;;
7047;SDS011;3565;53.254;10.352;2023-02-28T07:32:51;9.70;;;7.30;;
7047;SDS011;3565;53.254;10.352;2023-02-28T07:35:22;7.60;;;6.30;;
7047;SDS011;3565;53.254;10.352;2023-02-28T07:37:51;7.07;;;6.37;;
7047;SDS011;3565;53.254;10.352;2023-02-28T07:40:20;7.33;;;5.23;;
7047;SDS011;3565;53.254;10.352;2023-02-28T07:42:49;7.10;;;5.07;;
7047;SDS011;3565;53.254;10.352;2023-02-28T07:45:18;7.07;;;5.40;;
7047;SDS011;3565;53.254;10.352;2023-02-28T07:47:48;6.87;;;4.97;;
7047;SDS011;3565;53.254;10.352;2023-02-28T07:50:18;6.63;;;5.00;;
7047;SDS011;3565;53.254;10.352;2023-02-28T07:52:47;7.23;;;4.90;;
7047;SDS011;3565;53.254;10.352;2023-02-28T07:55:16;6.37;;;5.07;;
7047;SDS011;3565;53.254;10.352;2023-02-28T07:57:46;8.83;;;5.47;;
7047;SDS011;3565;53.254;10.352;2023-02-28T08:00:15;9.57;;;6.30;;
7047;SDS011;3565;53.254;10.352;2023-02-28T08:02:45;9.70;;;6.40;;
7047;SDS011;3565;53.254;10.352;2023-02-28T08:05:15;13.30;;;7.03;;
7047;SDS011;3565;53.254;10.352;2023-02-28T08:07:44;16.13;;;7.70;;
7047;SDS011;3565;53.254;10.352;2023-02-28T08:10:14;11.47;;;7.20;;
7047;SDS011;3565;53.254;10.352;2023-02-28T08:12:44;11.80;;;6.60;;
7047;SDS011;3565;53.254;10.352;2023-02-28T08:15:13;8.63;;;6.20;;
7047;SDS011;3565;53.254;10.352;2023-02-28T08:17:42;9.67;;;6.03;;
7047;SDS011;3565;53.254;10.352;2023-02-28T08:20:12;12.00;;;5.67;;
7047;SDS011;3565;53.254;10.352;2023-02-28T08:22:41;6.43;;;5.17;;
7047;SDS011;3565;53.254;10.352;2023-02-28T08:25:10;8.37;;;5.10;;
7047;SDS011;3565;53.254;10.352;2023-02-28T08:27:39;8.33;;;5.60;;
7047;SDS011;3565;53.254;10.352;2023-02-28T08:30:09;6.77;;;4.60;;
7047;SDS011;3565;53.254;10.352;2023-02-28T08:32:40;6.87;;;4.00;;
7047;SDS011;3565;53.254;10.352;2023-02-28T08:35:10;5.37;;;3.83;;
7047;SDS011;3565;53.254;10.352;2023-02-28T08:37:39;5.97;;;4.17;;
7047;SDS011;3565;53.254;10.352;2023-02-28T08:40:09;6.60;;;4.70;;
7047;SDS011;3565;53.254;10.352;2023-02-28T08:42:41;5.93;;;4.30;;
7047;SDS011;3565;53.254;10.352;2023-02-28T08:45:11;6.03;;;4.50;;
7047;SDS011;3565;53.254;10.352;2023-02-28T08:47:40;7.30;;;5.17;;
7047;SDS011;3565;53.254;10.352;2023-02-28T08:50:10;6.47;;;4.63;;
7047;SDS011;3565;53.254;10.352;2023-02-28T08:52:43;5.73;;;4.37;;
7047;SDS011;3565;53.254;10.352;2023-02-28T08:55:12;7.93;;;5.27;;
7047;SDS011;3565;53.254;10.352;2023-02-28T08:57:41;8.93;;;5.73;;
7047;SDS011;3565;53.254;10.352;2023-02-28T09:00:11;7.87;;;4.93;;
7047;SDS011;3565;53.254;10.352;2023-02-28T09:02:41;5.83;;;4.40;;
7047;SDS011;3565;53.254;10.352;2023-02-28T09:05:10;5.77;;;4.10;;
7047;SDS011;3565;53.254;10.352;2023-02-28T09:07:39;7.57;;;5.00;;
7047;SDS011;3565;53.254;10.352;2023-02-28T09:10:09;6.40;;;4.43;;
7047;SDS011;3565;53.254;10.352;2023-02-28T09:12:39;6.87;;;4.90;;
7047;SDS011;3565;53.254;10.352;2023-02-28T09:15:09;6.57;;;4.73;;
7047;SDS011;3565;53.254;10.352;2023-02-28T09:17:41;4.83;;;4.30;;
7047;SDS011;3565;53.254;10.352;2023-02-28T09:20:12;6.03;;;4.37;;
7047;SDS011;3565;53.254;10.352;2023-02-28T09:22:41;5.77;;;4.67;;
7047;SDS011;3565;53.254;10.352;2023-02-28T09:25:10;5.30;;;4.20;;
7047;SDS011;3565;53.254;10.352;2023-02-28T09:27:39;6.83;;;3.93;;
7047;SDS011;3565;53.254;10.352;2023-02-28T09:30:10;6.50;;;3.80;;
7047;SDS011;3565;53.254;10.352;2023-02-28T09:32:41;4.30;;;3.23;;
7047;SDS011;3565;53.254;10.352;2023-02-28T09:35:11;3.87;;;3.20;;
7047;SDS011;3565;53.254;10.352;2023-02-28T09:37:42;4.43;;;3.60;;
7047;SDS011;3565;53.254;10.352;2023-02-28T09:40:12;3.80;;;3.30;;
7047;SDS011;3565;53.254;10.352;2023-02-28T09:42:46;4.90;;;3.47;;
7047;SDS011;3565;53.254;10.352;2023-02-28T09:45:20;4.03;;;3.10;;
7047;SDS011;3565;53.254;10.352;2023-02-28T09:47:59;4.33;;;3.20;;
7047;SDS011;3565;53.254;10.352;2023-02-28T09:50:32;3.40;;;2.90;;
7047;SDS011;3565;53.254;10.352;2023-02-28T09:53:05;4.17;;;2.73;;
7047;SDS011;3565;53.254;10.352;2023-02-28T09:55:48;3.70;;;3.03;;
7047;SDS011;3565;53.254;10.352;2023-02-28T09:58:20;3.90;;;2.90;;
7047;SDS011;3565;53.254;10.352;2023-02-28T10:00:56;2.87;;;1.80;;
7047;SDS011;3565;53.254;10.352;2023-02-28T10:03:36;3.80;;;2.50;;
7047;SDS011;3565;53.254;10.352;2023-02-28T10:06:09;1.90;;;1.77;;
7047;SDS011;3565;53.254;10.352;2023-02-28T10:08:42;1.53;;;1.43;;
7047;SDS011;3565;53.254;10.352;2023-02-28T10:11:17;2.40;;;1.20;;
7047;SDS011;3565;53.254;10.352;2023-02-28T10:13:53;1.70;;;1.20;;
7047;SDS011;3565;53.254;10.352;2023-02-28T10:16:27;1.57;;;1.30;;
7047;SDS011;3565;53.254;10.352;2023-02-28T10:19:01;2.90;;;1.40;;
7047;SDS011;3565;53.254;10.352;2023-02-28T10:21:34;1.73;;;1.50;;
7047;SDS011;3565;53.254;10.352;2023-02-28T10:24:09;2.37;;;2.17;;
7047;SDS011;3565;53.254;10.352;2023-02-28T10:26:40;2.47;;;2.27;;
7047;SDS011;3565;53.254;10.352;2023-02-28T10:29:13;2.43;;;2.13;;
7047;SDS011;3565;53.254;10.352;2023-02-28T10:31:43;2.90;;;2.47;;
7047;SDS011;3565;53.254;10.352;2023-02-28T10:34:12;3.50;;;2.47;;
7047;SDS011;3565;53.254;10.352;2023-02-28T10:36:41;3.43;;;2.20;;
7047;SDS011;3565;53.254;10.352;2023-02-28T10:42:05;4.00;;;2.70;;
7047;SDS011;3565;53.254;10.352;2023-02-28T10:44:47;2.53;;;2.27;;
7047;SDS011;3565;53.254;10.352;2023-02-28T10:47:17;2.80;;;2.47;;
7047;SDS011;3565;53.254;10.352;2023-02-28T10:49:48;2.60;;;2.30;;
7047;SDS011;3565;53.254;10.352;2023-02-28T10:52:33;2.20;;;2.00;;
7047;SDS011;3565;53.254;10.352;2023-02-28T10:55:21;2.63;;;2.27;;
7047;SDS011;3565;53.254;10.352;2023-02-28T10:57:51;3.10;;;2.40;;
7047;SDS011;3565;53.254;10.352;2023-02-28T11:00:22;2.67;;;2.30;;
7047;SDS011;3565;53.254;10.352;2023-02-28T11:02:52;2.57;;;2.33;;
7047;SDS011;3565;53.254;10.352;2023-02-28T11:05:28;4.87;;;3.47;;
7047;SDS011;3565;53.254;10.352;2023-02-28T11:08:02;3.00;;;2.70;;
7047;SDS011;3565;53.254;10.352;2023-02-28T11:10:32;3.00;;;2.57;;
7047;SDS011;3565;53.254;10.352;2023-02-28T11:13:02;2.60;;;2.40;;
7047;SDS011;3565;53.254;10.352;2023-02-28T11:15:32;4.10;;;2.80;;
7047;SDS011;3565;53.254;10.352;2023-02-28T11:18:02;3.87;;;2.57;;
7047;SDS011;3565;53.254;10.352;2023-02-28T11:20:33;4.50;;;3.37;;
7047;SDS011;3565;53.254;10.352;2023-02-28T11:23:03;3.37;;;2.93;;
7047;SDS011;3565;53.254;10.352;2023-02-28T11:25:35;3.10;;;2.80;;
7047;SDS011;3565;53.254;10.352;2023-02-28T11:28:06;3.17;;;2.70;;
7047;SDS011;3565;53.254;10.352;2023-02-28T11:30:38;2.97;;;2.50;;
7047;SDS011;3565;53.254;10.352;2023-02-28T11:33:27;3.63;;;2.40;;
7047;SDS011;3565;53.254;10.352;2023-02-28T11:35:58;3.73;;;3.23;;
7047;SDS011;3565;53.254;10.352;2023-02-28T11:38:29;4.10;;;2.97;;
7047;SDS011;3565;53.254;10.352;2023-02-28T11:41:08;4.23;;;2.80;;
7047;SDS011;3565;53.254;10.352;2023-02-28T11:43:44;3.70;;;3.30;;
7047;SDS011;3565;53.254;10.352;2023-02-28T11:46:24;2.77;;;2.50;;
7047;SDS011;3565;53.254;10.352;2023-02-28T11:48:58;4.47;;;2.80;;
7047;SDS011;3565;53.254;10.352;2023-02-28T11:51:32;4.73;;;3.23;;
7047;SDS011;3565;53.254;10.352;2023-02-28T11:54:11;4.20;;;3.30;;
7047;SDS011;3565;53.254;10.352;2023-02-28T11:56:55;4.43;;;3.47;;
7047;SDS011;3565;53.254;10.352;2023-02-28T11:59:31;3.23;;;2.90;;
7047;SDS011;3565;53.254;10.352;2023-02-28T12:02:20;4.10;;;3.20;;
7047;SDS011;3565;53.254;10.352;2023-02-28T12:05:17;5.03;;;3.20;;
7047;SDS011;3565;53.254;10.352;2023-02-28T12:07:54;3.23;;;2.93;;
7047;SDS011;3565;53.254;10.352;2023-02-28T12:10:29;3.30;;;2.93;;
7047;SDS011;3565;53.254;10.352;2023-02-28T12:13:15;3.17;;;2.50;;
7047;SDS011;3565;53.254;10.352;2023-02-28T12:15:50;4.53;;;2.80;;
7047;SDS011;3565;53.254;10.352;2023-02-28T12:21:29;3.07;;;2.30;;
7047;SDS011;3565;53.254;10.352;2023-02-28T12:24:03;2.97;;;2.40;;
7047;SDS011;3565;53.254;10.352;2023-02-28T12:26:41;2.50;;;2.30;;
7047;SDS011;3565;53.254;10.352;2023-02-28T12:29:14;5.07;;;2.73;;
7047;SDS011;3565;53.254;10.352;2023-02-28T12:31:46;3.87;;;2.57;;
7047;SDS011;3565;53.254;10.352;2023-02-28T12:34:19;3.37;;;2.27;;
7047;SDS011;3565;53.254;10.352;2023-02-28T12:36:50;2.87;;;2.17;;
7047;SDS011;3565;53.254;10.352;2023-02-28T12:39:23;2.03;;;1.90;;
7047;SDS011;3565;53.254;10.352;2023-02-28T12:41:55;2.37;;;2.17;;
7047;SDS011;3565;53.254;10.352;2023-02-28T12:44:28;3.13;;;2.30;;
7047;SDS011;3565;53.254;10.352;2023-02-28T12:46:59;2.77;;;2.20;;
7047;SDS011;3565;53.254;10.352;2023-02-28T12:49:33;2.47;;;2.00;;
7047;SDS011;3565;53.254;10.352;2023-02-28T12:52:04;3.60;;;2.23;;
7047;SDS011;3565;53.254;10.352;2023-02-28T12:54:37;2.93;;;2.27;;
7047;SDS011;3565;53.254;10.352;2023-02-28T12:57:09;2.40;;;2.00;;
7047;SDS011;3565;53.254;10.352;2023-02-28T12:59:41;3.57;;;2.30;;
7047;SDS011;3565;53.254;10.352;2023-02-28T13:02:23;2.83;;;2.20;;
7047;SDS011;3565;53.254;10.352;2023-02-28T13:05:15;2.13;;;2.00;;
7047;SDS011;3565;53.254;10.352;2023-02-28T13:08:12;3.13;;;2.20;;
7047;SDS011;3565;53.254;10.352;2023-02-28T13:10:54;2.03;;;1.87;;
7047;SDS011;3565;53.254;10.352;2023-02-28T13:13:24;2.43;;;1.90;;
7047;SDS011;3565;53.254;10.352;2023-02-28T13:16:00;3.30;;;2.00;;
7047;SDS011;3565;53.254;10.352;2023-02-28T13:18:35;3.23;;;1.90;;
7047;SDS011;3565;53.254;10.352;2023-02-28T13:21:06;3.60;;;2.07;;
7047;SDS011;3565;53.254;10.352;2023-02-28T13:23:40;3.07;;;2.10;;
7047;SDS011;3565;53.254;10.352;2023-02-28T13:29:41;2.03;;;1.83;;
7047;SDS011;3565;53.254;10.352;2023-02-28T13:35:37;2.23;;;2.03;;
7047;SDS011;3565;53.254;10.352;2023-02-28T13:44:27;2.13;;;1.90;;
7047;SDS011;3565;53.254;10.352;2023-02-28T13:49:51;2.63;;;1.90;;
7047;SDS011;3565;53.254;10.352;2023-02-28T13:52:22;3.67;;;2.20;;
7047;SDS011;3565;53.254;10.352;2023-02-28T13:54:55;2.80;;;2.10;;
7047;SDS011;3565;53.254;10.352;2023-02-28T13:57:47;2.23;;;2.00;;
7047;SDS011;3565;53.254;10.352;2023-02-28T14:00:27;2.70;;;2.00;;
7047;SDS011;3565;53.254;10.352;2023-02-28T14:03:23;2.80;;;2.03;;
7047;SDS011;3565;53.254;10.352;2023-02-28T14:09:16;2.20;;;2.00;;
7047;SDS011;3565;53.254;10.352;2023-02-28T14:11:45;3.07;;;2.20;;
7047;SDS011;3565;53.254;10.352;2023-02-28T14:17:19;3.30;;;2.20;;
7047;SDS011;3565;53.254;10.352;2023-02-28T14:19:49;2.13;;;1.90;;
7047;SDS011;3565;53.254;10.352;2023-02-28T14:22:21;2.90;;;2.13;;
7047;SDS011;3565;53.254;10.352;2023-02-28T14:25:06;2.33;;;2.07;;
7047;SDS011;3565;53.254;10.352;2023-02-28T14:27:41;3.37;;;2.20;;
7047;SDS011;3565;53.254;10.352;2023-02-28T14:30:32;2.43;;;1.87;;
7047;SDS011;3565;53.254;10.352;2023-02-28T14:32:59;2.20;;;2.00;;
7047;SDS011;3565;53.254;10.352;2023-02-28T14:35:40;2.20;;;2.00;;
7047;SDS011;3565;53.254;10.352;2023-02-28T14:38:14;2.00;;;1.80;;
7047;SDS011;3565;53.254;10.352;2023-02-28T14:40:47;2.47;;;2.10;;
7047;SDS011;3565;53.254;10.352;2023-02-28T14:43:21;3.23;;;1.90;;
7047;SDS011;3565;53.254;10.352;2023-02-28T14:45:52;2.43;;;1.87;;
7047;SDS011;3565;53.254;10.352;2023-02-28T14:48:24;3.07;;;2.30;;
7047;SDS011;3565;53.254;10.352;2023-02-28T14:50:54;2.17;;;1.97;;
7047;SDS011;3565;53.254;10.352;2023-02-28T14:53:26;2.27;;;1.90;;
7047;SDS011;3565;53.254;10.352;2023-02-28T14:55:57;2.60;;;1.93;;
7047;SDS011;3565;53.254;10.352;2023-02-28T14:58:27;2.60;;;2.13;;
7047;SDS011;3565;53.254;10.352;2023-02-28T15:00:59;3.43;;;2.07;;
7047;SDS011;3565;53.254;10.352;2023-02-28T15:03:31;3.47;;;2.00;;
7047;SDS011;3565;53.254;10.352;2023-02-28T15:06:01;3.43;;;1.97;;
7047;SDS011;3565;53.254;10.352;2023-02-28T15:08:32;2.80;;;2.10;;
7047;SDS011;3565;53.254;10.352;2023-02-28T15:11:02;2.10;;;1.90;;
7047;SDS011;3565;53.254;10.352;2023-02-28T15:13:36;2.00;;;1.80;;
7047;SDS011;3565;53.254;10.352;2023-02-28T15:16:09;3.70;;;1.80;;
7047;SDS011;3565;53.254;10.352;2023-02-28T15:18:44;2.67;;;2.00;;
7047;SDS011;3565;53.254;10.352;2023-02-28T15:21:16;2.03;;;1.80;;
7047;SDS011;3565;53.254;10.352;2023-02-28T15:23:48;2.07;;;1.80;;
7047;SDS011;3565;53.254;10.352;2023-02-28T15:26:20;1.80;;;1.70;;
7047;SDS011;3565;53.254;10.352;2023-02-28T15:28:51;1.70;;;1.60;;
7047;SDS011;3565;53.254;10.352;2023-02-28T15:31:26;1.87;;;1.63;;
7047;SDS011;3565;53.254;10.352;2023-02-28T15:33:56;2.30;;;1.50;;
7047;SDS011;3565;53.254;10.352;2023-02-28T15:36:28;1.80;;;1.70;;
7047;SDS011;3565;53.254;10.352;2023-02-28T15:39:01;1.70;;;1.60;;
7047;SDS011;3565;53.254;10.352;2023-02-28T15:41:35;1.70;;;1.50;;
7047;SDS011;3565;53.254;10.352;2023-02-28T15:44:14;1.90;;;1.70;;
7047;SDS011;3565;53.254;10.352;2023-02-28T15:46:45;1.70;;;1.60;;
7047;SDS011;3565;53.254;10.352;2023-02-28T15:49:22;1.87;;;1.57;;
7047;SDS011;3565;53.254;10.352;2023-02-28T15:51:51;1.93;;;1.73;;
7047;SDS011;3565;53.254;10.352;2023-02-28T15:54:24;1.60;;;1.43;;
7047;SDS011;3565;53.254;10.352;2023-02-28T15:56:57;1.90;;;1.70;;
7047;SDS011;3565;53.254;10.352;2023-02-28T15:59:28;1.83;;;1.73;;
7047;SDS011;3565;53.254;10.352;2023-02-28T16:02:11;1.90;;;1.70;;
7047;SDS011;3565;53.254;10.352;2023-02-28T16:07:55;2.17;;;1.50;;
7047;SDS011;3565;53.254;10.352;2023-02-28T16:10:25;1.60;;;1.50;;
7047;SDS011;3565;53.254;10.352;2023-02-28T16:12:56;1.83;;;1.63;;
7047;SDS011;3565;53.254;10.352;2023-02-28T16:15:26;1.70;;;1.60;;
7047;SDS011;3565;53.254;10.352;2023-02-28T16:17:56;2.37;;;1.70;;